Time;durP1;ratioP1;P1;durP2;ratioP2;P2;SDS_P1;SDS_P2;PMS_P1;PMS_P2;Temp;Humidity;BMP_temperature;BMP_pressure;BME280_temperature;BME280_humidity;BME280_pressure;Samples;Min_cycle;Max_cycle;Signal;HPM_P1;HPM_P2
2021/06/17 00:01:25;;;;;;;63.60;13.43;;;26.50;57.90;;;;;;5009388;28;20080;-59
2021/06/17 00:03:50;;;;;;;83.05;14.13;;;26.50;58.10;;;;;;5009508;28;20088;-60
2021/06/17 00:06:16;;;;;;;66.05;12.55;;;26.40;58.10;;;;;;5005453;28;20033;-59
2021/06/17 00:08:41;;;;;;;73.43;12.63;;;26.40;58.10;;;;;;4997713;28;20394;-60
2021/06/17 00:11:07;;;;;;;59.28;12.23;;;26.30;58.20;;;;;;5037592;28;20462;-59
2021/06/17 00:13:36;;;;;;;66.78;11.85;;;26.30;58.30;;;;;;5006555;28;20026;-59
2021/06/17 00:16:01;;;;;;;66.78;11.77;;;26.30;58.40;;;;;;5008375;28;20026;-59
2021/06/17 00:18:27;;;;;;;51.13;11.27;;;26.30;58.40;;;;;;5008699;28;20071;-59
2021/06/17 00:20:53;;;;;;;59.25;12.57;;;26.20;58.50;;;;;;5015468;28;20037;-60
2021/06/17 00:23:18;;;;;;;49.58;11.52;;;26.20;58.40;;;;;;5002427;28;20034;-59
2021/06/17 00:25:44;;;;;;;48.28;10.32;;;26.20;58.50;;;;;;4991821;28;20045;-59
2021/06/17 00:28:10;;;;;;;46.47;10.75;;;26.20;58.60;;;;;;5006182;28;20159;-59
2021/06/17 00:30:36;;;;;;;40.90;9.82;;;26.10;58.60;;;;;;5022752;28;20068;-59
2021/06/17 00:33:02;;;;;;;49.45;11.00;;;26.10;58.70;;;;;;5004860;28;20038;-59
2021/06/17 00:35:29;;;;;;;44.55;9.35;;;26.10;58.70;;;;;;4998083;28;20029;-59
2021/06/17 00:37:54;;;;;;;37.35;9.35;;;26.10;58.80;;;;;;5005651;28;20469;-59
2021/06/17 00:40:20;;;;;;;39.85;10.35;;;26.10;59.50;;;;;;5037450;28;20026;-59
2021/06/17 00:42:48;;;;;;;32.70;10.10;;;26.10;58.90;;;;;;5030666;28;20117;-59
2021/06/17 00:45:17;;;;;;;43.42;10.75;;;26.00;59.00;;;;;;5004797;28;20390;-59
2021/06/17 00:47:43;;;;;;;32.95;10.27;;;26.00;59.10;;;;;;5007081;28;20030;-58
2021/06/17 00:50:09;;;;;;;35.17;9.80;;;25.90;59.10;;;;;;5008006;28;20072;-59
2021/06/17 00:52:35;;;;;;;35.05;8.95;;;25.90;59.10;;;;;;5008067;28;20505;-58
2021/06/17 00:55:00;;;;;;;48.20;9.20;;;25.90;59.20;;;;;;5007326;28;20032;-59
2021/06/17 00:57:26;;;;;;;35.97;8.25;;;25.90;59.30;;;;;;5001688;28;20038;-59
2021/06/17 00:59:51;;;;;;;38.95;8.23;;;25.90;59.30;;;;;;5007568;28;20033;-59
2021/06/17 01:02:17;;;;;;;28.25;7.97;;;25.80;59.30;;;;;;5004124;28;20483;-58
2021/06/17 01:04:43;;;;;;;28.25;7.68;;;25.80;59.40;;;;;;5002871;28;20083;-59
2021/06/17 01:07:08;;;;;;;27.90;8.05;;;25.80;59.50;;;;;;5007466;28;20470;-59
2021/06/17 01:09:54;;;;;;;24.88;7.82;;;25.70;59.50;;;;;;5003647;28;20042;-59
2021/06/17 01:12:40;;;;;;;24.17;7.47;;;25.70;59.60;;;;;;5007058;28;20501;-59
2021/06/17 01:15:07;;;;;;;28.20;7.00;;;25.70;59.60;;;;;;5003501;28;20042;-59
2021/06/17 01:17:35;;;;;;;29.70;7.40;;;25.70;59.80;;;;;;5007707;28;20034;-59
2021/06/17 01:20:08;;;;;;;27.00;8.30;;;25.70;59.80;;;;;;5006858;28;20131;-59
2021/06/17 01:22:39;;;;;;;33.40;7.03;;;25.70;60.00;;;;;;5007756;28;20363;-59
2021/06/17 01:25:32;;;;;;;20.25;7.00;;;25.60;59.90;;;;;;5007333;28;20443;-59
2021/06/17 01:28:13;;;;;;;19.50;7.18;;;25.60;59.90;;;;;;4999024;28;20061;-59
2021/06/17 01:30:54;;;;;;;23.00;7.57;;;25.50;60.00;;;;;;5018196;28;20025;-59
2021/06/17 01:33:19;;;;;;;25.48;7.07;;;25.60;60.10;;;;;;5004985;28;20074;-59
2021/06/17 01:35:47;;;;;;;24.40;6.72;;;25.50;60.20;;;;;;5007633;28;20050;-59
2021/06/17 01:38:14;;;;;;;13.73;6.45;;;25.50;60.30;;;;;;5005790;28;20026;-58
2021/06/17 01:40:40;;;;;;;18.95;6.80;;;25.50;60.30;;;;;;4989030;28;20033;-58
2021/06/17 01:43:05;;;;;;;14.48;6.38;;;25.40;60.50;;;;;;5022971;28;20481;-59
2021/06/17 01:45:31;;;;;;;16.35;6.60;;;25.40;60.40;;;;;;5008067;28;20489;-60
2021/06/17 01:47:58;;;;;;;17.92;6.40;;;25.40;61.20;;;;;;5009804;28;20248;-59
2021/06/17 01:50:25;;;;;;;17.83;6.30;;;25.40;60.70;;;;;;4995023;28;20018;-59
2021/06/17 01:52:51;;;;;;;14.15;7.20;;;25.40;60.70;;;;;;4992803;28;20081;-59
2021/06/17 01:55:17;;;;;;;13.32;6.88;;;25.30;60.80;;;;;;5014051;28;20453;-59
2021/06/17 01:57:42;;;;;;;11.30;7.63;;;25.30;60.90;;;;;;5025584;28;20097;-59
2021/06/17 02:00:08;;;;;;;10.52;6.78;;;25.30;60.90;;;;;;5021903;28;20465;-58
2021/06/17 02:02:34;;;;;;;20.45;7.32;;;25.30;60.80;;;;;;5010039;28;20026;-59
2021/06/17 02:05:00;;;;;;;15.02;6.75;;;25.30;60.90;;;;;;4991022;28;20042;-58
2021/06/17 02:07:25;;;;;;;13.82;5.55;;;25.20;60.90;;;;;;5025569;28;20488;-59
2021/06/17 02:09:52;;;;;;;15.98;6.32;;;25.20;61.00;;;;;;5008523;28;20482;-59
2021/06/17 02:12:17;;;;;;;13.43;6.53;;;25.20;61.10;;;;;;5008445;28;20018;-59
2021/06/17 02:14:44;;;;;;;9.40;6.03;;;25.20;61.20;;;;;;5012389;28;20113;-59
2021/06/17 02:17:09;;;;;;;12.07;5.57;;;25.20;61.30;;;;;;4993342;28;20029;-59
2021/06/17 02:19:37;;;;;;;17.42;6.80;;;25.10;61.30;;;;;;4997101;28;20034;-58
2021/06/17 02:22:03;;;;;;;15.52;5.43;;;25.10;61.40;;;;;;5035513;28;20028;-59
2021/06/17 02:24:29;;;;;;;15.30;5.30;;;25.10;61.50;;;;;;4995493;28;20474;-59
2021/06/17 02:27:01;;;;;;;11.98;6.13;;;25.10;61.60;;;;;;5009035;28;20530;-58
2021/06/17 02:29:27;;;;;;;15.90;5.40;;;25.00;61.60;;;;;;5021505;28;20034;-59
2021/06/17 02:31:52;;;;;;;13.52;5.13;;;25.00;61.70;;;;;;5014845;28;20038;-58
2021/06/17 02:34:18;;;;;;;10.95;5.43;;;25.00;61.80;;;;;;4994436;28;20034;-59
2021/06/17 02:36:44;;;;;;;10.77;5.50;;;24.90;61.80;;;;;;4993919;28;20037;-59
2021/06/17 02:39:12;;;;;;;11.05;4.68;;;25.00;61.90;;;;;;5009016;28;20044;-60
2021/06/17 02:41:38;;;;;;;9.48;5.03;;;24.90;61.90;;;;;;4993037;28;20026;-59
2021/06/17 02:44:04;;;;;;;13.93;4.97;;;24.90;62.00;;;;;;5007953;28;20437;-59
2021/06/17 02:46:29;;;;;;;9.25;4.82;;;24.90;62.00;;;;;;5005003;28;20116;-59
2021/06/17 02:48:55;;;;;;;11.05;4.57;;;24.90;62.10;;;;;;5010329;28;20478;-59
2021/06/17 02:51:21;;;;;;;10.57;5.03;;;24.90;62.20;;;;;;4992530;28;20374;-59
2021/06/17 02:53:47;;;;;;;7.85;4.30;;;24.80;62.20;;;;;;4977449;28;20034;-59
2021/06/17 02:56:30;;;;;;;9.23;4.55;;;24.80;62.20;;;;;;5007428;28;20038;-59
2021/06/17 02:59:20;;;;;;;10.23;4.60;;;24.80;62.30;;;;;;4991609;28;20023;-59
2021/06/17 03:02:04;;;;;;;7.57;4.78;;;24.80;62.50;;;;;;5004310;28;20037;-59
2021/06/17 03:05:05;;;;;;;11.57;4.63;;;24.70;62.60;;;;;;4987615;28;20048;-59
2021/06/17 03:07:32;;;;;;;9.52;4.60;;;24.70;62.60;;;;;;5003723;28;20073;-58
2021/06/17 03:10:00;;;;;;;5.03;4.18;;;24.70;62.70;;;;;;5005550;28;20057;-59
2021/06/17 03:12:26;;;;;;;8.95;4.07;;;24.70;62.80;;;;;;4993812;28;20022;-59
2021/06/17 03:14:55;;;;;;;8.68;4.57;;;24.70;62.90;;;;;;4992062;28;20487;-59
2021/06/17 03:17:20;;;;;;;11.63;4.50;;;24.70;62.90;;;;;;4994713;28;20486;-59
2021/06/17 03:19:48;;;;;;;8.25;4.57;;;24.70;62.90;;;;;;4972307;28;20042;-58
2021/06/17 03:22:14;;;;;;;10.15;4.53;;;24.60;63.00;;;;;;4988696;28;20452;-59
2021/06/17 03:24:41;;;;;;;10.75;4.68;;;24.60;63.10;;;;;;5022192;28;20041;-59
2021/06/17 03:27:07;;;;;;;6.50;4.00;;;24.60;63.20;;;;;;5036708;28;20038;-58
2021/06/17 03:29:37;;;;;;;7.75;4.50;;;24.60;63.20;;;;;;5019285;28;20022;-59
2021/06/17 03:32:03;;;;;;;9.52;3.55;;;24.60;63.20;;;;;;5006421;28;20124;-59
2021/06/17 03:34:29;;;;;;;6.00;4.25;;;24.50;63.20;;;;;;5001379;28;20164;-59
2021/06/17 03:36:56;;;;;;;12.52;4.65;;;24.50;63.40;;;;;;4997449;28;20022;-59
2021/06/17 03:39:21;;;;;;;7.75;4.93;;;24.50;63.40;;;;;;5006535;28;20959;-59
2021/06/17 03:41:47;;;;;;;9.75;4.95;;;24.50;64.20;;;;;;5004157;28;20044;-59
2021/06/17 03:44:13;;;;;;;9.02;4.70;;;24.50;63.70;;;;;;5008974;28;20125;-60
2021/06/17 03:46:38;;;;;;;9.52;4.63;;;24.40;63.70;;;;;;5022639;28;20160;-59
2021/06/17 03:49:04;;;;;;;10.13;4.60;;;24.40;63.70;;;;;;5008711;28;20117;-59
2021/06/17 03:51:29;;;;;;;7.55;4.50;;;24.40;63.70;;;;;;5038357;28;20466;-58
2021/06/17 03:53:55;;;;;;;6.03;4.50;;;24.40;63.80;;;;;;5008187;28;20018;-59
2021/06/17 03:56:20;;;;;;;9.30;4.20;;;24.40;63.80;;;;;;5007067;28;20034;-59
2021/06/17 03:58:47;;;;;;;7.35;4.53;;;24.40;63.90;;;;;;5017815;28;20470;-59
2021/06/17 04:01:12;;;;;;;8.63;4.35;;;24.40;64.00;;;;;;4990517;28;20030;-59
2021/06/17 04:03:38;;;;;;;6.22;4.30;;;24.30;64.00;;;;;;5009238;28;20489;-59
2021/06/17 04:06:04;;;;;;;5.30;4.07;;;24.30;64.10;;;;;;5003197;28;20064;-59
2021/06/17 04:08:37;;;;;;;6.45;4.30;;;24.30;64.10;;;;;;5003325;28;20093;-59
2021/06/17 04:11:03;;;;;;;5.68;4.30;;;24.30;64.20;;;;;;4997170;28;20393;-59
2021/06/17 04:13:32;;;;;;;9.55;4.20;;;24.30;64.30;;;;;;5007897;28;20466;-59
2021/06/17 04:15:58;;;;;;;6.45;4.32;;;24.20;64.30;;;;;;4995228;28;20036;-59
2021/06/17 04:18:24;;;;;;;7.05;4.00;;;24.20;64.40;;;;;;5009244;28;20037;-59
2021/06/17 04:20:49;;;;;;;5.95;3.80;;;24.20;64.50;;;;;;4994342;28;20041;-59
2021/06/17 04:23:16;;;;;;;4.57;3.35;;;24.20;64.60;;;;;;5024297;28;20111;-59
2021/06/17 04:25:41;;;;;;;4.80;4.20;;;24.20;64.50;;;;;;5008219;28;20080;-58
2021/06/17 04:28:07;;;;;;;5.75;4.10;;;24.20;64.50;;;;;;4992257;28;20478;-59
2021/06/17 04:30:33;;;;;;;9.73;4.60;;;24.10;64.40;;;;;;5008626;28;20114;-59
2021/06/17 04:33:01;;;;;;;4.63;4.05;;;24.10;64.40;;;;;;5007517;28;20030;-59
2021/06/17 04:35:26;;;;;;;6.22;4.20;;;24.10;64.50;;;;;;5000891;28;20022;-59
2021/06/17 04:37:52;;;;;;;6.82;3.70;;;24.10;64.60;;;;;;5024556;28;20048;-60
2021/06/17 04:40:20;;;;;;;7.18;3.95;;;24.10;64.90;;;;;;5012852;28;20072;-59
2021/06/17 04:42:45;;;;;;;7.30;3.88;;;24.10;64.80;;;;;;5019718;28;20045;-60
2021/06/17 04:45:11;;;;;;;8.18;3.90;;;24.00;64.90;;;;;;5019799;28;20037;-59
2021/06/17 04:47:39;;;;;;;7.65;3.90;;;24.00;65.00;;;;;;5019025;28;20380;-60
2021/06/17 04:50:06;;;;;;;10.60;3.88;;;24.00;65.00;;;;;;5029160;28;20089;-59
2021/06/17 04:52:39;;;;;;;7.55;3.85;;;24.00;65.10;;;;;;5003701;28;20029;-60
2021/06/17 04:55:05;;;;;;;7.43;4.47;;;24.00;65.20;;;;;;4983791;28;20042;-59
2021/06/17 04:57:31;;;;;;;6.05;4.05;;;24.00;65.30;;;;;;5018156;28;20069;-59
2021/06/17 04:59:56;;;;;;;7.53;3.90;;;24.00;65.60;;;;;;5001139;28;20018;-59
2021/06/17 05:02:22;;;;;;;10.75;4.03;;;24.00;65.50;;;;;;5005186;28;20030;-59
2021/06/17 05:04:47;;;;;;;7.88;4.05;;;24.00;65.60;;;;;;5005179;28;20524;-59
2021/06/17 05:12:26;;;;;;;11.98;4.40;;;23.90;65.60;;;;;;5013712;28;20040;-59
2021/06/17 05:14:51;;;;;;;8.65;4.05;;;23.90;65.70;;;;;;5005369;28;20026;-59
2021/06/17 05:17:17;;;;;;;5.15;3.80;;;23.90;65.80;;;;;;5001046;28;20030;-59
2021/06/17 05:19:42;;;;;;;8.45;4.20;;;23.90;65.80;;;;;;5024040;28;20192;-59
2021/06/17 05:22:08;;;;;;;6.97;3.83;;;23.90;65.90;;;;;;5008383;28;20038;-60
2021/06/17 05:24:34;;;;;;;10.77;4.28;;;23.90;66.00;;;;;;5009211;28;20117;-59
2021/06/17 05:26:59;;;;;;;6.78;3.85;;;23.90;66.00;;;;;;5007188;28;20125;-59
2021/06/17 05:29:25;;;;;;;7.63;4.20;;;23.90;66.20;;;;;;4991936;28;20120;-59
2021/06/17 05:31:50;;;;;;;5.75;3.83;;;23.90;66.30;;;;;;5006621;28;20113;-59
2021/06/17 05:34:16;;;;;;;10.88;3.80;;;23.90;66.40;;;;;;4987277;28;20018;-59
2021/06/17 05:36:41;;;;;;;6.70;3.88;;;23.90;66.40;;;;;;5004582;28;20071;-59
2021/06/17 05:39:07;;;;;;;7.25;4.30;;;23.90;66.50;;;;;;5011113;28;20481;-59
2021/06/17 05:41:33;;;;;;;9.45;3.75;;;23.90;66.40;;;;;;5007222;28;20242;-59
2021/06/17 05:43:58;;;;;;;5.80;4.10;;;23.90;66.50;;;;;;5014041;28;20061;-58
2021/06/17 05:46:24;;;;;;;7.93;4.07;;;23.80;66.40;;;;;;5008853;28;20108;-59
2021/06/17 05:48:49;;;;;;;9.85;3.80;;;23.80;66.40;;;;;;5009852;28;20444;-59
2021/06/17 05:51:15;;;;;;;8.90;4.65;;;23.90;66.60;;;;;;5008014;28;20080;-59
2021/06/17 05:53:40;;;;;;;9.10;4.53;;;23.80;67.70;;;;;;5007066;28;20401;-59
2021/06/17 05:56:06;;;;;;;8.95;3.88;;;23.80;67.20;;;;;;5005965;28;20434;-59
2021/06/17 05:58:31;;;;;;;9.88;3.65;;;23.80;67.30;;;;;;5008763;28;20026;-59
2021/06/17 06:00:57;;;;;;;8.27;4.30;;;23.80;67.30;;;;;;5005734;28;20545;-59
2021/06/17 06:03:23;;;;;;;9.70;3.95;;;23.80;67.60;;;;;;5008574;28;20556;-59
2021/06/17 06:05:48;;;;;;;10.77;4.20;;;23.80;68.10;;;;;;5007065;28;20040;-59
2021/06/17 06:08:14;;;;;;;13.55;4.70;;;23.80;67.90;;;;;;5039663;28;20479;-59
2021/06/17 06:10:41;;;;;;;9.65;4.45;;;23.70;67.90;;;;;;5010337;28;20539;-59
2021/06/17 06:13:06;;;;;;;11.88;4.38;;;23.70;67.90;;;;;;5008984;28;20496;-59
2021/06/17 06:15:33;;;;;;;11.93;4.40;;;23.70;68.00;;;;;;5004573;28;20037;-59
2021/06/17 06:18:08;;;;;;;12.80;4.47;;;23.70;68.10;;;;;;5009670;28;20030;-59
2021/06/17 06:20:34;;;;;;;15.10;4.82;;;23.70;68.20;;;;;;5008026;28;20048;-59
2021/06/17 06:23:00;;;;;;;18.13;4.43;;;23.70;68.10;;;;;;5006096;28;20030;-59
2021/06/17 06:25:25;;;;;;;12.68;3.97;;;23.70;68.00;;;;;;5025435;28;20489;-59
2021/06/17 06:27:51;;;;;;;29.88;6.15;;;23.70;68.00;;;;;;5004697;28;20084;-59
2021/06/17 06:30:17;;;;;;;30.85;5.53;;;23.70;68.30;;;;;;5006831;28;20029;-59
2021/06/17 06:32:42;;;;;;;30.30;5.28;;;23.70;68.10;;;;;;5005692;28;20164;-59
2021/06/17 06:35:09;;;;;;;23.63;5.10;;;23.70;68.20;;;;;;4998195;28;20030;-59
2021/06/17 06:37:35;;;;;;;23.00;4.85;;;23.70;68.20;;;;;;5008472;28;20340;-59
2021/06/17 06:40:00;;;;;;;18.90;5.28;;;23.70;68.10;;;;;;5005259;28;20271;-59
2021/06/17 06:42:26;;;;;;;25.30;5.47;;;23.80;68.40;;;;;;5003723;28;20054;-59
2021/06/17 06:44:51;;;;;;;20.92;5.18;;;23.80;68.50;;;;;;5005334;28;20125;-59
2021/06/17 06:47:17;;;;;;;30.35;5.78;;;23.80;68.70;;;;;;5009758;28;20466;-60
2021/06/17 06:49:42;;;;;;;16.45;5.35;;;23.80;69.10;;;;;;5008719;28;20022;-59
2021/06/17 06:52:08;;;;;;;53.95;6.53;;;23.80;69.00;;;;;;5010617;28;20516;-59
2021/06/17 06:54:33;;;;;;;27.00;6.63;;;23.80;68.90;;;;;;5008277;28;20030;-59
2021/06/17 06:56:59;;;;;;;25.10;5.43;;;23.80;69.20;;;;;;5008551;28;20331;-58
2021/06/17 06:59:24;;;;;;;17.70;4.95;;;23.80;69.20;;;;;;5007422;28;20034;-63
2021/06/17 07:01:51;;;;;;;25.27;6.05;;;23.90;69.10;;;;;;5024252;28;20037;-61
2021/06/17 07:04:16;;;;;;;36.90;6.32;;;23.90;69.20;;;;;;5004911;28;20054;-61
2021/06/17 07:06:42;;;;;;;34.55;7.10;;;23.90;70.20;;;;;;5008833;28;20056;-60
2021/06/17 07:09:07;;;;;;;30.65;6.22;;;23.90;70.60;;;;;;5008433;28;20143;-61
2021/06/17 07:11:33;;;;;;;40.92;6.88;;;23.90;70.80;;;;;;5008524;28;20038;-59
2021/06/17 07:13:59;;;;;;;36.22;6.60;;;23.90;70.60;;;;;;5004522;28;20161;-59
2021/06/17 07:16:25;;;;;;;31.10;6.00;;;23.90;71.20;;;;;;5008901;28;20303;-59
2021/06/17 07:18:50;;;;;;;49.63;7.57;;;23.90;71.10;;;;;;5009253;28;20057;-60
2021/06/17 07:21:17;;;;;;;21.40;5.95;;;24.00;71.70;;;;;;5007628;28;20591;-59
2021/06/17 07:23:45;;;;;;;42.60;6.53;;;24.00;72.20;;;;;;5007178;28;20048;-59
2021/06/17 07:26:11;;;;;;;21.58;6.07;;;24.00;71.30;;;;;;4991542;28;20544;-59
2021/06/17 07:28:36;;;;;;;26.92;6.55;;;24.00;71.40;;;;;;4990905;28;20037;-59
2021/06/17 07:31:02;;;;;;;25.90;5.40;;;24.00;71.50;;;;;;5007197;28;20595;-59
2021/06/17 07:33:28;;;;;;;25.42;6.18;;;24.10;71.30;;;;;;5005543;28;20030;-59
2021/06/17 07:35:54;;;;;;;41.92;6.32;;;24.10;71.10;;;;;;5006436;28;20462;-61
2021/06/17 07:38:19;;;;;;;43.13;7.63;;;24.10;71.70;;;;;;5007120;28;20028;-58
2021/06/17 07:40:45;;;;;;;56.88;9.02;;;24.10;71.90;;;;;;5008038;28;20076;-58
2021/06/17 07:43:10;;;;;;;38.90;8.63;;;24.20;71.80;;;;;;5008296;28;20092;-58
2021/06/17 07:45:36;;;;;;;59.72;8.30;;;24.20;71.60;;;;;;5008894;28;20026;-58
2021/06/17 07:48:02;;;;;;;43.45;6.35;;;24.30;71.50;;;;;;5003054;28;20081;-59
2021/06/17 07:50:28;;;;;;;44.38;6.97;;;24.30;71.40;;;;;;5004784;28;20025;-59
2021/06/17 07:52:53;;;;;;;41.60;6.30;;;24.30;71.30;;;;;;5008452;28;20037;-59
2021/06/17 07:55:19;;;;;;;40.03;7.00;;;24.40;71.10;;;;;;5008106;28;20048;-59
2021/06/17 07:57:44;;;;;;;33.53;7.00;;;24.40;71.10;;;;;;5005660;28;20041;-60
2021/06/17 08:00:10;;;;;;;45.97;7.75;;;24.40;71.00;;;;;;5007336;28;20033;-60
2021/06/17 08:02:36;;;;;;;68.88;7.75;;;24.50;71.00;;;;;;5003406;28;20136;-60
2021/06/17 08:05:02;;;;;;;51.63;7.93;;;24.50;70.90;;;;;;5007410;28;20220;-60
2021/06/17 08:07:28;;;;;;;49.90;6.65;;;24.60;70.70;;;;;;5009531;28;20383;-59
2021/06/17 08:09:53;;;;;;;50.45;6.78;;;24.60;70.50;;;;;;5039176;28;20026;-60
2021/06/17 08:12:20;;;;;;;37.35;7.13;;;24.70;70.50;;;;;;5006231;28;20492;-59
2021/06/17 08:14:45;;;;;;;44.15;6.95;;;24.70;70.30;;;;;;4991047;28;20064;-59
2021/06/17 08:17:11;;;;;;;48.35;6.43;;;24.80;70.30;;;;;;5010076;28;20466;-59
2021/06/17 08:19:36;;;;;;;46.88;6.47;;;24.80;70.10;;;;;;5002921;28;20112;-59
2021/06/17 08:22:06;;;;;;;75.63;11.02;;;24.80;70.10;;;;;;5001640;28;20470;-60
2021/06/17 08:24:33;;;;;;;77.70;11.02;;;24.90;70.30;;;;;;5026392;28;20022;-60
2021/06/17 08:26:58;;;;;;;53.22;9.50;;;24.90;70.50;;;;;;5001780;28;20037;-60
2021/06/17 08:29:24;;;;;;;79.82;11.05;;;24.90;70.20;;;;;;5004150;28;20053;-59
2021/06/17 08:31:49;;;;;;;75.55;11.60;;;24.90;70.00;;;;;;5038937;28;20404;-59
2021/06/17 08:34:15;;;;;;;82.88;11.52;;;25.00;70.00;;;;;;5022774;28;20080;-59
2021/06/17 08:36:40;;;;;;;81.00;10.55;;;25.10;70.00;;;;;;5003284;28;20405;-59
2021/06/17 08:39:06;;;;;;;78.05;11.05;;;25.10;69.70;;;;;;5002649;28;20026;-60
2021/06/17 08:41:32;;;;;;;86.93;11.32;;;25.30;69.70;;;;;;4999875;28;20509;-60
2021/06/17 08:43:57;;;;;;;82.05;12.82;;;25.20;70.10;;;;;;5001170;28;20362;-60
2021/06/17 08:46:23;;;;;;;79.90;10.70;;;25.20;70.00;;;;;;5003430;28;21375;-59
2021/06/17 08:48:49;;;;;;;74.90;11.48;;;25.30;69.20;;;;;;5003433;28;20168;-59
2021/06/17 08:51:14;;;;;;;89.00;17.45;;;25.40;69.30;;;;;;4986123;28;20151;-59
2021/06/17 08:53:40;;;;;;;72.32;11.35;;;25.40;69.10;;;;;;5002203;28;20147;-60
2021/06/17 08:56:05;;;;;;;92.30;14.30;;;25.50;68.90;;;;;;4999435;28;20041;-60
2021/06/17 08:58:31;;;;;;;90.82;13.05;;;25.50;68.90;;;;;;4985907;28;20042;-60
2021/06/17 09:00:57;;;;;;;77.07;12.18;;;25.50;68.90;;;;;;5002356;28;20037;-60
2021/06/17 09:03:22;;;;;;;86.57;13.95;;;25.50;69.00;;;;;;5000619;28;20034;-60
2021/06/17 09:05:53;;;;;;;72.82;14.18;;;25.60;69.10;;;;;;4982600;28;20408;-60
2021/06/17 09:08:27;;;;;;;92.00;14.25;;;25.60;69.10;;;;;;5016486;28;20068;-59
2021/06/17 09:10:52;;;;;;;57.95;10.65;;;25.70;69.00;;;;;;4997377;28;20493;-59
2021/06/17 09:13:18;;;;;;;97.43;13.43;;;25.70;68.90;;;;;;5000960;28;20041;-60
2021/06/17 09:15:54;;;;;;;83.53;11.70;;;25.80;69.00;;;;;;5001833;28;20034;-60
2021/06/17 09:18:22;;;;;;;;;;;25.80;68.90;;;;;;5001116;28;20030;-59
2021/06/17 09:20:49;;;;;;;59.55;9.23;;;25.90;68.80;;;;;;4999824;28;19928;-60
2021/06/17 09:23:24;;;;;;;72.25;11.15;;;25.90;68.80;;;;;;4999672;28;20143;-60
2021/06/17 09:26:02;;;;;;;57.78;9.68;;;25.90;68.90;;;;;;5000782;28;20125;-60
2021/06/17 09:28:43;;;;;;;54.88;16.33;;;26.00;68.50;;;;;;5001558;28;20101;-59
2021/06/17 09:31:15;;;;;;;59.28;13.00;;;26.10;68.30;;;;;;5013107;28;20021;-60
2021/06/17 09:33:42;;;;;;;52.47;11.18;;;26.10;68.40;;;;;;4983486;28;20069;-60
2021/06/17 09:36:08;;;;;;;58.05;10.52;;;26.10;68.30;;;;;;5000682;28;20036;-59
2021/06/17 09:39:02;;;;;;;74.38;11.50;;;26.10;68.10;;;;;;5000580;28;20504;-60
2021/06/17 09:41:44;;;;;;;75.70;13.23;;;26.20;68.20;;;;;;5000614;28;20045;-59
2021/06/17 09:44:29;;;;;;;74.15;13.13;;;26.30;68.50;;;;;;5000214;28;20097;-60
2021/06/17 09:47:17;;;;;;;79.57;14.52;;;26.30;68.50;;;;;;5000426;28;20116;-60
2021/06/17 09:49:43;;;;;;;90.60;15.35;;;26.40;68.60;;;;;;4999934;28;20480;-61
2021/06/17 09:52:10;;;;;;;87.10;14.05;;;26.40;68.40;;;;;;5001308;28;20026;-59
2021/06/17 09:54:39;;;;;;;140.23;18.00;;;26.50;68.20;;;;;;5001986;28;20088;-60
2021/06/17 09:57:06;;;;;;;81.10;14.18;;;26.50;68.50;;;;;;4984078;28;20045;-60
2021/06/17 09:59:47;;;;;;;45.92;11.00;;;26.50;67.90;;;;;;4982898;28;20116;-60
2021/06/17 10:02:34;;;;;;;61.10;10.43;;;26.60;67.40;;;;;;4998529;28;20469;-60
2021/06/17 10:05:08;;;;;;;34.53;9.43;;;26.60;67.10;;;;;;5001321;28;20045;-60
2021/06/17 10:07:34;;;;;;;57.03;9.40;;;26.60;67.10;;;;;;5020555;28;20044;-60
2021/06/17 10:10:00;;;;;;;65.05;10.60;;;26.70;67.00;;;;;;5001133;28;20037;-59
2021/06/17 10:12:26;;;;;;;68.45;10.32;;;26.70;67.10;;;;;;4985425;28;20021;-60
2021/06/17 10:14:51;;;;;;;81.78;11.75;;;26.80;67.10;;;;;;5000912;28;20160;-60
2021/06/17 10:17:17;;;;;;;143.52;17.58;;;26.80;67.10;;;;;;4984014;28;20156;-60
2021/06/17 10:19:43;;;;;;;99.93;13.57;;;26.90;66.90;;;;;;4984525;28;20553;-60
2021/06/17 10:22:08;;;;;;;56.03;10.40;;;27.00;66.80;;;;;;4988483;28;20120;-60
2021/06/17 10:24:36;;;;;;;30.55;7.97;;;27.00;66.60;;;;;;5003386;28;20109;-60
2021/06/17 10:27:08;;;;;;;110.55;14.02;;;27.00;66.30;;;;;;5002189;28;20544;-60
2021/06/17 10:29:35;;;;;;;44.85;9.13;;;27.10;66.40;;;;;;5000061;28;20034;-60
2021/06/17 10:32:01;;;;;;;46.40;8.48;;;27.10;66.10;;;;;;5003635;28;20088;-60
2021/06/17 10:34:28;;;;;;;38.30;8.43;;;27.20;65.80;;;;;;5004717;28;20030;-60
2021/06/17 10:37:09;;;;;;;33.13;8.35;;;27.30;65.60;;;;;;5004039;28;21048;-60
2021/06/17 10:39:41;;;;;;;40.97;8.65;;;27.30;65.30;;;;;;5001482;28;20356;-60
2021/06/17 10:42:31;;;;;;;44.30;8.20;;;27.40;65.40;;;;;;4997570;28;20660;-60
2021/06/17 10:44:58;;;;;;;27.05;7.68;;;27.40;65.10;;;;;;5003340;28;20049;-61
2021/06/17 10:47:49;;;;;;;36.63;8.63;;;27.50;64.90;;;;;;5005013;28;20029;-61
2021/06/17 10:50:25;;;;;;;41.80;9.43;;;27.50;65.00;;;;;;5003740;28;20033;-60
2021/06/17 10:52:52;;;;;;;;;;;27.60;65.00;;;;;;5002306;28;20497;-61
2021/06/17 10:55:20;;;;;;;40.22;9.05;;;27.60;64.50;;;;;;5003318;28;19918;-60
2021/06/17 10:57:49;;;;;;;49.28;8.68;;;27.70;64.40;;;;;;5003015;28;20044;-63
2021/06/17 11:02:53;;;;;;;48.67;9.13;;;27.90;64.20;;;;;;5002332;28;20362;-60
2021/06/17 11:05:34;;;;;;;33.55;7.65;;;28.00;64.10;;;;;;5002157;28;20288;-60
2021/06/17 11:08:22;;;;;;;38.83;8.65;;;28.00;63.60;;;;;;5002758;28;20092;-60
2021/06/17 11:11:04;;;;;;;46.53;8.90;;;28.10;63.30;;;;;;5003995;28;20040;-60
2021/06/17 11:13:34;;;;;;;43.92;8.90;;;28.20;63.10;;;;;;4987118;28;20030;-60
2021/06/17 11:16:04;;;;;;;34.65;10.23;;;28.30;63.60;;;;;;5000978;28;20030;-60
2021/06/17 11:18:49;;;;;;;51.40;9.65;;;28.40;62.60;;;;;;5033514;28;20034;-60
2021/06/17 11:21:21;;;;;;;34.38;9.65;;;28.40;62.20;;;;;;5001734;28;20050;-60
2021/06/17 11:24:05;;;;;;;31.73;9.52;;;28.50;61.90;;;;;;5019188;28;20426;-60
2021/06/17 11:26:51;;;;;;;26.63;7.70;;;28.60;61.80;;;;;;5003386;28;20038;-60
2021/06/17 11:29:21;;;;;;;33.35;8.48;;;28.60;61.60;;;;;;5000629;28;20037;-60
2021/06/17 11:31:50;;;;;;;39.17;8.07;;;28.70;61.30;;;;;;4984422;28;20037;-61
2021/06/17 11:34:38;;;;;;;24.30;7.00;;;28.80;61.10;;;;;;5002023;28;20077;-60
2021/06/17 11:37:11;;;;;;;24.52;7.97;;;28.90;61.00;;;;;;4986648;28;20083;-60
2021/06/17 11:39:37;;;;;;;19.42;6.97;;;29.00;60.80;;;;;;5002246;28;20030;-60
2021/06/17 11:42:03;;;;;;;13.10;6.13;;;29.10;60.60;;;;;;4985832;28;20079;-60
2021/06/17 11:44:29;;;;;;;18.42;6.28;;;29.10;60.30;;;;;;4996538;28;20393;-60
2021/06/17 11:47:12;;;;;;;28.33;7.25;;;29.20;60.10;;;;;;5001322;28;20030;-59
2021/06/17 11:49:43;;;;;;;20.88;6.80;;;29.30;59.80;;;;;;5001086;28;20065;-60
2021/06/17 11:52:16;;;;;;;16.63;6.05;;;29.40;59.50;;;;;;5006467;28;20029;-60
2021/06/17 11:54:42;;;;;;;17.73;7.10;;;29.40;59.10;;;;;;5001543;28;20092;-60
2021/06/17 11:57:08;;;;;;;20.50;6.05;;;29.50;59.20;;;;;;5000006;28;20041;-60
2021/06/17 11:59:36;;;;;;;16.38;5.70;;;29.60;59.10;;;;;;5000836;28;20040;-60
2021/06/17 12:02:24;;;;;;;42.22;7.75;;;29.60;58.90;;;;;;5002628;28;20575;-61
2021/06/17 12:05:00;;;;;;;20.30;6.57;;;29.70;58.50;;;;;;5002311;28;20032;-60
2021/06/17 12:07:27;;;;;;;25.95;6.40;;;29.80;58.30;;;;;;5002007;28;20026;-60
2021/06/17 12:09:53;;;;;;;24.15;6.03;;;29.90;58.00;;;;;;5001054;28;20021;-60
2021/06/17 12:12:23;;;;;;;16.42;6.32;;;29.90;57.80;;;;;;5001612;28;20116;-60
2021/06/17 12:14:54;;;;;;;23.85;6.80;;;30.00;57.50;;;;;;5003441;28;20030;-60
2021/06/17 12:17:30;;;;;;;16.27;5.97;;;30.10;57.00;;;;;;5001058;28;20038;-60
2021/06/17 12:19:56;;;;;;;20.55;5.80;;;30.20;57.20;;;;;;5003173;28;20026;-59
2021/06/17 12:22:22;;;;;;;14.18;5.30;;;30.30;56.80;;;;;;4984413;28;20018;-61
2021/06/17 12:24:47;;;;;;;28.27;5.82;;;30.40;56.60;;;;;;5001169;28;20052;-61
2021/06/17 12:27:13;;;;;;;26.23;5.63;;;30.30;56.30;;;;;;4982777;28;20029;-60
2021/06/17 12:29:38;;;;;;;25.25;6.00;;;30.40;56.30;;;;;;4984075;28;20552;-60
2021/06/17 12:32:04;;;;;;;32.80;7.18;;;30.50;56.20;;;;;;5000747;28;20057;-60
2021/06/17 12:34:38;;;;;;;48.05;8.25;;;30.50;55.80;;;;;;4982028;28;20465;-60
2021/06/17 12:37:06;;;;;;;44.28;7.32;;;30.50;55.60;;;;;;5001043;28;20049;-61
2021/06/17 12:39:31;;;;;;;37.13;6.90;;;30.60;56.00;;;;;;5010993;28;20053;-60
2021/06/17 12:41:57;;;;;;;35.15;7.07;;;30.60;55.80;;;;;;5001294;28;20125;-60
2021/06/17 12:44:39;;;;;;;28.70;6.88;;;30.60;55.80;;;;;;4965474;28;20501;-60
2021/06/17 12:47:16;;;;;;;38.03;7.43;;;30.70;56.10;;;;;;5001519;28;20919;-60
2021/06/17 12:52:30;;;;;;;28.80;6.18;;;30.80;56.00;;;;;;5001169;28;20044;-60
2021/06/17 12:54:56;;;;;;;26.83;6.60;;;30.90;55.70;;;;;;4984208;28;20703;-59